Time;durP1;ratioP1;P1;durP2;ratioP2;P2;SDS_P1;SDS_P2;PMS_P1;PMS_P2;Temp;Humidity;BMP_temperature;BMP_pressure;BME280_temperature;BME280_humidity;BME280_pressure;Samples;Min_cycle;Max_cycle;Signal;HPM_P1;HPM_P2
2023/11/24 00:02:06;;;;;;;20.37;11.83;;;;;;;-2.94;100.00;97357.78;5033091;28;20033;-71
2023/11/24 00:04:32;;;;;;;17.87;10.97;;;;;;;-2.79;100.00;97373.59;5033707;28;20128;-70
2023/11/24 00:06:58;;;;;;;16.42;11.70;;;;;;;-2.89;100.00;97363.34;5033900;28;20052;-71
2023/11/24 00:09:27;;;;;;;15.47;10.97;;;;;;;-2.87;100.00;97376.22;5034265;28;20075;-68
2023/11/24 00:11:52;;;;;;;16.02;11.25;;;;;;;-2.91;100.00;97373.09;5034281;28;20029;-73
2023/11/24 00:14:18;;;;;;;15.73;10.67;;;;;;;-2.87;100.00;97384.84;5034193;28;20421;-74
2023/11/24 00:16:44;;;;;;;17.00;10.43;;;;;;;-2.97;100.00;97371.13;5033597;28;20124;-67
2023/11/24 00:19:15;;;;;;;14.43;10.47;;;;;;;-3.01;100.00;97369.81;5033636;28;20029;-71
2023/11/24 00:21:44;;;;;;;19.35;11.85;;;;;;;-2.98;100.00;97374.72;5034211;28;20037;-71
2023/11/24 00:24:09;;;;;;;15.63;9.93;;;;;;;-3.04;100.00;97372.75;5034058;28;20076;-70
2023/11/24 00:26:37;;;;;;;16.60;10.63;;;;;;;-3.08;100.00;97368.84;5033670;28;20037;-70
2023/11/24 00:29:03;;;;;;;15.40;10.40;;;;;;;-3.24;100.00;97354.00;5034158;28;20128;-70
2023/11/24 00:31:28;;;;;;;16.27;10.00;;;;;;;-3.23;100.00;97353.00;5033846;28;20144;-71
2023/11/24 00:33:58;;;;;;;14.37;9.73;;;;;;;-2.98;100.00;97373.91;5033811;28;20037;-68
2023/11/24 00:36:24;;;;;;;14.00;10.02;;;;;;;-2.88;100.00;97378.00;5033578;28;20041;-69
2023/11/24 00:38:50;;;;;;;14.63;9.75;;;;;;;-2.84;100.00;97379.31;5033418;28;20088;-71
2023/11/24 00:41:17;;;;;;;14.97;10.23;;;;;;;-2.86;100.00;97376.03;5032339;28;20071;-69
2023/11/24 00:43:43;;;;;;;14.07;9.65;;;;;;;-2.86;100.00;97373.44;5032326;28;20124;-71
2023/11/24 00:46:10;;;;;;;15.63;10.15;;;;;;;-2.93;100.00;97364.63;5033383;28;20030;-68
2023/11/24 00:48:37;;;;;;;15.50;11.15;;;;;;;-2.79;100.00;97386.63;5033555;28;20072;-72
2023/11/24 00:51:02;;;;;;;14.80;10.85;;;;;;;-2.85;100.00;97374.25;5033539;28;20500;-66
2023/11/24 00:53:29;;;;;;;16.20;10.53;;;;;;;-2.87;100.00;97369.22;5031963;28;20075;-68
2023/11/24 00:55:56;;;;;;;15.05;9.50;;;;;;;-2.89;100.00;97365.97;5033187;28;20065;-69
2023/11/24 00:58:22;;;;;;;14.32;9.48;;;;;;;-2.87;100.00;97373.59;5031879;28;20132;-68
2023/11/24 01:00:48;;;;;;;13.57;8.87;;;;;;;-2.89;100.00;97378.97;5033299;28;20373;-69
2023/11/24 01:03:13;;;;;;;15.20;9.37;;;;;;;-3.23;100.00;97318.38;5033286;28;20041;-67
2023/11/24 01:05:39;;;;;;;15.83;10.83;;;;;;;-2.99;100.00;97357.47;5032784;28;20041;-69
2023/11/24 01:08:05;;;;;;;12.38;9.25;;;;;;;-3.02;100.00;97363.00;5032994;28;20034;-69
2023/11/24 01:10:30;;;;;;;15.93;10.40;;;;;;;-3.10;100.00;97357.78;5032936;28;20459;-68
2023/11/24 01:12:58;;;;;;;16.37;11.07;;;;;;;-2.97;100.00;97376.34;5031832;28;20064;-68
2023/11/24 01:15:23;;;;;;;16.40;10.43;;;;;;;-3.06;100.00;97359.09;5031560;28;20041;-69
2023/11/24 01:17:49;;;;;;;18.77;11.27;;;;;;;-3.05;100.00;97358.09;5032898;28;20170;-67
2023/11/24 01:20:16;;;;;;;14.53;11.27;;;;;;;-2.92;100.00;97371.47;5033307;28;20033;-67
2023/11/24 01:22:43;;;;;;;13.13;10.20;;;;;;;-2.98;100.00;97366.09;5015094;28;20560;-68
2023/11/24 01:25:09;;;;;;;16.77;10.40;;;;;;;-3.55;100.00;97275.69;5033234;28;20409;-68
2023/11/24 01:27:37;;;;;;;13.73;10.47;;;;;;;-3.06;100.00;97346.06;5034635;28;20059;-66
2023/11/24 01:30:03;;;;;;;15.82;9.80;;;;;;;-2.93;100.00;97382.84;5033629;28;20284;-67
2023/11/24 01:32:30;;;;;;;16.40;11.10;;;;;;;-2.96;100.00;97392.78;5035656;28;20469;-67
2023/11/24 01:34:56;;;;;;;15.37;10.70;;;;;;;-3.29;100.00;97358.03;5033592;28;20099;-68
2023/11/24 01:37:21;;;;;;;14.83;10.27;;;;;;;-3.26;100.00;97368.13;5036004;28;20033;-68
2023/11/24 01:39:47;;;;;;;16.73;12.23;;;;;;;-3.20;100.00;97370.09;5046235;28;20072;-65
2023/11/24 01:42:15;;;;;;;18.90;12.25;;;;;;;-3.11;100.00;97376.97;5041970;28;20119;-65
2023/11/24 01:44:42;;;;;;;18.00;11.63;;;;;;;-3.25;100.00;97352.38;5043433;28;20061;-67
2023/11/24 01:47:08;;;;;;;20.48;12.73;;;;;;;-3.13;100.00;97369.31;5031621;28;20512;-66
2023/11/24 01:49:34;;;;;;;18.43;12.77;;;;;;;-3.22;100.00;97348.63;5030695;28;20075;-68
2023/11/24 01:51:59;;;;;;;21.58;15.00;;;;;;;-3.15;100.00;97362.66;5032203;28;20040;-67
2023/11/24 01:54:27;;;;;;;25.57;18.33;;;;;;;-3.08;100.00;97366.25;5032441;28;20400;-69
2023/11/24 01:56:54;;;;;;;31.58;21.38;;;;;;;-2.97;100.00;97383.34;5029675;28;21630;-69
2023/11/24 01:59:22;;;;;;;28.02;21.50;;;;;;;-2.93;100.00;97384.63;5031277;28;20489;-67
2023/11/24 02:01:48;;;;;;;28.30;20.08;;;;;;;-2.86;100.00;97391.66;5030733;28;20064;-67
2023/11/24 02:04:15;;;;;;;23.98;14.55;;;;;;;-2.79;100.00;97388.41;5032162;28;20041;-66
2023/11/24 02:06:42;;;;;;;21.58;14.05;;;;;;;-2.87;100.00;97384.84;5033161;28;20044;-69
2023/11/24 02:09:09;;;;;;;21.52;14.63;;;;;;;-3.13;100.00;97348.50;5033463;28;20052;-68
2023/11/24 02:11:35;;;;;;;28.00;18.67;;;;;;;-3.03;100.00;97371.78;5032796;28;20033;-67
2023/11/24 02:14:01;;;;;;;22.10;15.70;;;;;;;-3.11;100.00;97369.16;5031911;28;20048;-67
2023/11/24 02:16:27;;;;;;;23.50;15.37;;;;;;;-3.05;100.00;97370.31;5030666;28;20030;-67
2023/11/24 02:18:52;;;;;;;23.03;15.10;;;;;;;-2.97;100.00;97385.94;5031753;28;20022;-69
2023/11/24 02:21:18;;;;;;;23.60;15.60;;;;;;;-2.90;100.00;97379.91;5031880;28;20405;-67
2023/11/24 02:23:44;;;;;;;26.50;16.13;;;;;;;-2.95;100.00;97366.56;5031794;28;20034;-68
2023/11/24 02:26:10;;;;;;;24.33;16.45;;;;;;;-2.91;100.00;97373.09;5031752;28;20465;-66
2023/11/24 02:28:37;;;;;;;26.67;16.67;;;;;;;-2.78;100.00;97382.22;5031033;28;20057;-69
2023/11/24 02:31:03;;;;;;;27.55;18.63;;;;;;;-2.81;100.00;97389.41;5032387;28;20045;-71
2023/11/24 02:33:33;;;;;;;24.90;16.38;;;;;;;-3.05;100.00;97365.09;5031689;28;20087;-69
2023/11/24 02:36:05;;;;;;;25.33;16.05;;;;;;;-3.02;100.00;97378.59;5032013;28;20044;-69
2023/11/24 02:38:33;;;;;;;25.52;16.92;;;;;;;-3.02;100.00;97385.59;5032487;28;20056;-70
2023/11/24 02:41:00;;;;;;;26.70;16.95;;;;;;;-3.13;100.00;97376.31;5032468;28;20087;-68
2023/11/24 02:43:26;;;;;;;28.67;18.42;;;;;;;-3.11;100.00;97395.19;5030193;28;20037;-66
2023/11/24 02:45:52;;;;;;;23.00;16.90;;;;;;;-3.13;100.00;97389.34;5029787;28;20081;-69
2023/11/24 02:48:18;;;;;;;22.33;14.43;;;;;;;-3.15;100.00;97383.47;5032001;28;20034;-68
2023/11/24 02:50:43;;;;;;;27.93;16.87;;;;;;;-3.06;100.00;97394.72;5032635;28;20033;-67
2023/11/24 02:53:09;;;;;;;28.07;17.17;;;;;;;-3.18;100.00;97383.75;5033298;28;20037;-67
2023/11/24 02:55:35;;;;;;;27.60;16.20;;;;;;;-3.18;100.00;97392.41;5031589;28;20081;-67
2023/11/24 02:58:01;;;;;;;28.97;16.40;;;;;;;-3.21;100.00;97378.88;5030117;28;20128;-68
2023/11/24 03:00:27;;;;;;;28.02;16.70;;;;;;;-3.10;100.00;97394.22;5030920;28;20524;-68
2023/11/24 03:02:52;;;;;;;26.05;17.00;;;;;;;-3.44;100.00;97343.06;5030919;28;20048;-66
2023/11/24 03:05:19;;;;;;;26.60;15.43;;;;;;;-3.09;100.00;97390.63;5031148;28;20132;-70
2023/11/24 03:07:44;;;;;;;24.65;16.95;;;;;;;-3.07;100.00;97387.88;5029914;28;20065;-67
2023/11/24 03:10:11;;;;;;;21.00;14.40;;;;;;;-2.95;100.00;97413.44;5031416;28;20065;-68
2023/11/24 03:12:37;;;;;;;24.92;16.00;;;;;;;-2.99;100.00;97414.72;5029744;28;20040;-66
2023/11/24 03:15:04;;;;;;;24.77;15.73;;;;;;;-3.18;100.00;97384.59;5030902;28;20516;-67
2023/11/24 03:17:30;;;;;;;23.77;15.57;;;;;;;-3.20;100.00;97383.91;5030823;28;20037;-68
2023/11/24 03:19:56;;;;;;;26.00;16.63;;;;;;;-3.10;100.00;97391.63;5031097;28;20500;-68
2023/11/24 03:22:22;;;;;;;21.73;15.23;;;;;;;-2.90;100.00;97423.38;5031125;28;20507;-66
2023/11/24 03:24:47;;;;;;;27.80;17.20;;;;;;;-3.13;100.00;97405.75;5030892;28;20267;-66
2023/11/24 03:27:16;;;;;;;24.33;14.18;;;;;;;-3.04;100.00;97419.59;5030855;28;20479;-68
2023/11/24 03:29:43;;;;;;;22.05;14.60;;;;;;;-3.27;100.00;97390.75;5030806;28;20037;-67
2023/11/24 03:32:09;;;;;;;26.63;16.23;;;;;;;-3.08;100.00;97433.09;5030904;28;20044;-67
2023/11/24 03:34:35;;;;;;;24.00;17.27;;;;;;;-3.04;100.00;97430.03;5030934;28;20412;-67
2023/11/24 03:37:01;;;;;;;24.42;14.90;;;;;;;-2.98;100.00;97436.38;5031017;28;20268;-65
2023/11/24 03:39:27;;;;;;;22.57;15.80;;;;;;;-3.03;100.00;97423.84;5031810;28;20043;-68
2023/11/24 03:41:53;;;;;;;24.63;15.90;;;;;;;-3.14;100.00;97411.13;5034320;28;20048;-65
2023/11/24 03:44:19;;;;;;;22.17;15.37;;;;;;;-3.04;100.00;97416.19;5034596;28;20322;-67
2023/11/24 03:46:44;;;;;;;22.55;14.32;;;;;;;-3.06;100.00;97415.53;5034192;28;20037;-66
2023/11/24 03:49:11;;;;;;;24.23;15.90;;;;;;;-2.91;100.00;97440.78;5034771;28;20485;-69
2023/11/24 03:51:36;;;;;;;21.48;14.00;;;;;;;-2.88;100.00;97450.91;5034814;28;20041;-67
2023/11/24 03:54:02;;;;;;;24.17;14.30;;;;;;;-2.85;100.00;97445.38;5034260;28;20036;-69
2023/11/24 03:56:28;;;;;;;24.60;13.93;;;;;;;-2.90;100.00;97444.19;5034281;28;20045;-68
2023/11/24 03:58:54;;;;;;;22.73;15.25;;;;;;;-3.02;100.00;97422.06;5034327;28;20037;-67
2023/11/24 04:01:20;;;;;;;24.37;14.77;;;;;;;-2.88;100.00;97445.69;5033074;28;20180;-67
2023/11/24 04:03:46;;;;;;;23.57;13.73;;;;;;;-2.79;100.00;97453.53;5031188;28;20033;-69
2023/11/24 04:06:15;;;;;;;21.95;14.88;;;;;;;-2.89;100.00;97443.22;5017023;28;20044;-67
2023/11/24 04:08:41;;;;;;;19.83;12.77;;;;;;;-3.16;100.00;97406.09;5016871;28;20037;-68
2023/11/24 04:11:07;;;;;;;21.70;12.83;;;;;;;-3.12;100.00;97417.00;5021943;28;20038;-66
2023/11/24 04:13:32;;;;;;;17.93;12.93;;;;;;;-3.02;100.00;97430.69;5027259;28;20400;-67
2023/11/24 04:15:58;;;;;;;16.33;11.67;;;;;;;-2.89;100.00;97454.50;5024109;28;20065;-70
2023/11/24 04:18:25;;;;;;;17.00;12.07;;;;;;;-2.83;100.00;97464.25;5023333;28;20042;-69
2023/11/24 04:20:51;;;;;;;22.52;12.45;;;;;;;-2.89;100.00;97462.31;5018802;28;20485;-68
2023/11/24 04:23:18;;;;;;;15.48;11.70;;;;;;;-2.99;100.00;97453.78;5019239;28;20037;-65
2023/11/24 04:25:44;;;;;;;18.48;13.38;;;;;;;-3.16;100.00;97441.72;5013811;28;20038;-66
2023/11/24 04:28:10;;;;;;;19.80;12.07;;;;;;;-2.99;100.00;97472.00;5012511;28;20058;-67
2023/11/24 04:30:39;;;;;;;18.88;12.98;;;;;;;-3.25;100.00;97433.03;5013831;28;20498;-67
2023/11/24 04:33:05;;;;;;;16.42;10.13;;;;;;;-3.18;100.00;97439.25;5013523;28;20042;-69
2023/11/24 04:35:30;;;;;;;17.30;12.00;;;;;;;-3.23;100.00;97432.88;5019089;28;20040;-66
2023/11/24 04:37:56;;;;;;;17.67;11.93;;;;;;;-3.24;100.00;97434.66;5015521;28;20410;-68
2023/11/24 04:40:21;;;;;;;17.40;12.73;;;;;;;-3.34;100.00;97428.78;5012739;28;20168;-67
2023/11/24 04:42:47;;;;;;;18.43;11.13;;;;;;;-3.06;100.00;97478.00;5013351;28;20516;-74
2023/11/24 04:45:13;;;;;;;22.17;12.63;;;;;;;-2.98;100.00;97501.47;5013933;28;20046;-70
2023/11/24 04:47:39;;;;;;;17.80;12.30;;;;;;;-3.06;100.00;97478.81;5013317;28;20077;-67
2023/11/24 04:50:06;;;;;;;19.83;12.57;;;;;;;-3.46;100.00;97430.03;5013373;28;20124;-67
2023/11/24 04:52:32;;;;;;;23.83;12.50;;;;;;;-3.22;100.00;97470.94;5012649;28;20050;-71
2023/11/24 04:54:58;;;;;;;16.55;11.75;;;;;;;-3.22;100.00;97471.75;5011943;28;20041;-70
2023/11/24 04:57:24;;;;;;;16.13;13.03;;;;;;;-3.14;100.00;97494.41;5013700;28;20444;-70
2023/11/24 04:59:49;;;;;;;21.10;15.10;;;;;;;-3.15;100.00;97492.78;5015795;28;20145;-67
2023/11/24 05:02:15;;;;;;;19.97;12.83;;;;;;;-3.23;100.00;97490.13;5013971;28;20034;-69
2023/11/24 05:04:41;;;;;;;19.07;12.80;;;;;;;-3.17;100.00;97528.56;5009779;28;20041;-66
2023/11/24 05:07:06;;;;;;;21.10;12.57;;;;;;;-3.14;100.00;97529.06;5013331;28;20261;-66
2023/11/24 05:09:32;;;;;;;21.60;11.70;;;;;;;-3.21;100.00;97522.00;5014808;28;20057;-68
2023/11/24 05:11:59;;;;;;;19.13;12.60;;;;;;;-3.11;100.00;97543.56;5013206;28;20382;-67
2023/11/24 05:14:25;;;;;;;19.15;11.02;;;;;;;-3.13;100.00;97519.47;5012861;28;20062;-67
2023/11/24 05:16:50;;;;;;;19.03;12.37;;;;;;;-3.16;100.00;97509.38;5012902;28;20532;-65
2023/11/24 05:19:16;;;;;;;16.67;10.33;;;;;;;-3.03;100.00;97533.19;5012781;28;20033;-69
2023/11/24 05:21:42;;;;;;;16.70;11.37;;;;;;;-3.14;100.00;97543.88;5012790;28;20041;-68
2023/11/24 05:24:10;;;;;;;17.80;11.07;;;;;;;-3.26;100.00;97529.47;5011663;28;20120;-68
2023/11/24 05:26:37;;;;;;;;;;;;;;;-3.13;100.00;97535.91;5012767;28;20034;-67
2023/11/24 05:29:05;;;;;;;19.90;12.88;;;;;;;-3.13;100.00;97545.50;5012786;28;20024;-70
2023/11/24 05:31:30;;;;;;;17.00;11.23;;;;;;;-3.17;100.00;97549.41;5012349;28;20030;-69
2023/11/24 05:33:58;;;;;;;23.53;12.80;;;;;;;-3.38;100.00;97522.91;5012574;28;20414;-69
2023/11/24 05:36:23;;;;;;;16.65;11.48;;;;;;;-3.33;100.00;97550.09;5012804;28;20034;-73
2023/11/24 05:38:49;;;;;;;20.67;13.57;;;;;;;-3.35;100.00;97546.84;4994918;28;20037;-67
2023/11/24 05:41:15;;;;;;;22.60;14.00;;;;;;;-3.38;100.00;97561.94;5012234;28;20030;-68
2023/11/24 05:43:40;;;;;;;25.43;11.93;;;;;;;-3.49;100.00;97550.81;5012762;28;20140;-67
2023/11/24 05:46:06;;;;;;;20.93;13.27;;;;;;;-3.42;100.00;97561.44;5012497;28;20040;-66
2023/11/24 05:48:33;;;;;;;26.45;14.43;;;;;;;-3.50;100.00;97538.75;5012278;28;20458;-70
2023/11/24 05:50:59;;;;;;;16.48;12.85;;;;;;;-3.40;100.00;97546.50;5010843;28;20048;-68
2023/11/24 05:53:25;;;;;;;18.97;11.30;;;;;;;-3.35;100.00;97553.84;5011321;28;20033;-67
2023/11/24 05:55:52;;;;;;;19.27;10.75;;;;;;;-3.29;100.00;97550.59;5012087;28;20038;-67
2023/11/24 05:58:18;;;;;;;19.58;12.32;;;;;;;-3.28;100.00;97547.03;5011389;28;20056;-67
2023/11/24 06:00:44;;;;;;;16.53;10.43;;;;;;;-3.52;100.00;97508.69;5012439;28;20034;-68
2023/11/24 06:03:12;;;;;;;17.57;11.47;;;;;;;-3.36;100.00;97544.41;5012426;28;20129;-68
2023/11/24 06:05:38;;;;;;;18.15;10.88;;;;;;;-3.31;100.00;97571.59;5012169;28;20038;-67
2023/11/24 06:08:04;;;;;;;16.97;11.50;;;;;;;-3.26;100.00;97577.13;5011911;28;20362;-69
2023/11/24 06:10:31;;;;;;;22.85;11.18;;;;;;;-3.65;100.00;97513.47;5011757;28;20037;-68
2023/11/24 06:12:57;;;;;;;17.98;9.95;;;;;;;-3.12;100.00;97567.97;5011901;28;20042;-68
2023/11/24 06:15:23;;;;;;;27.37;13.03;;;;;;;-3.10;100.00;97546.97;5011723;28;20034;-68
2023/11/24 06:17:50;;;;;;;24.20;11.63;;;;;;;-3.04;100.00;97560.19;5011881;28;20490;-68
2023/11/24 06:20:16;;;;;;;17.98;10.73;;;;;;;-2.96;100.00;97568.03;5011975;28;20044;-69
2023/11/24 06:22:45;;;;;;;18.65;11.32;;;;;;;-3.25;100.00;97523.31;5011745;28;20060;-68
2023/11/24 06:25:11;;;;;;;20.08;11.95;;;;;;;-2.99;100.00;97565.75;5011743;28;20064;-69
2023/11/24 06:27:39;;;;;;;17.77;11.40;;;;;;;-2.82;100.00;97577.06;5011452;28;20049;-70
2023/11/24 06:30:06;;;;;;;16.13;7.90;;;;;;;-2.92;100.00;97560.72;5010624;28;20068;-68
2023/11/24 06:32:33;;;;;;;14.13;9.15;;;;;;;-2.90;100.00;97590.03;5011634;28;20049;-68
2023/11/24 06:34:59;;;;;;;19.63;11.63;;;;;;;-3.05;100.00;97568.16;5012016;28;20049;-67
2023/11/24 06:37:25;;;;;;;18.25;11.10;;;;;;;-3.18;100.00;97555.53;5012211;28;20042;-69
2023/11/24 06:39:51;;;;;;;17.37;11.30;;;;;;;-3.24;100.00;97549.16;5011667;28;20034;-67
2023/11/24 06:42:17;;;;;;;16.43;9.67;;;;;;;-2.98;100.00;97590.81;5010796;28;20042;-68
2023/11/24 06:44:43;;;;;;;18.85;11.23;;;;;;;-3.09;100.00;97567.66;5010501;28;20068;-67
2023/11/24 06:47:09;;;;;;;17.83;10.95;;;;;;;-3.03;100.00;97576.63;5010608;28;20060;-68
2023/11/24 06:49:35;;;;;;;18.50;12.30;;;;;;;-3.11;100.00;97582.59;5010457;28;20034;-68
2023/11/24 06:52:04;;;;;;;20.87;10.67;;;;;;;-3.21;100.00;97589.69;5011409;28;20099;-69
2023/11/24 06:54:31;;;;;;;18.92;11.25;;;;;;;-3.32;100.00;97571.72;5011697;28;20468;-67
2023/11/24 06:56:56;;;;;;;16.63;10.83;;;;;;;-3.14;100.00;97590.72;5011843;28;20069;-67
2023/11/24 06:59:22;;;;;;;17.83;10.67;;;;;;;-3.03;100.00;97589.63;5011882;28;20042;-67
2023/11/24 07:01:48;;;;;;;22.45;12.52;;;;;;;-2.99;100.00;97588.34;5011555;28;20046;-68
2023/11/24 07:04:16;;;;;;;15.10;10.75;;;;;;;-2.86;100.00;97614.81;5011380;28;20038;-68
2023/11/24 07:06:42;;;;;;;19.33;11.50;;;;;;;-2.88;100.00;97622.78;5011109;28;20034;-67
2023/11/24 07:09:08;;;;;;;17.97;10.97;;;;;;;-2.78;100.00;97627.03;5011342;28;20030;-69
2023/11/24 07:11:33;;;;;;;17.20;11.07;;;;;;;-2.87;100.00;97608.78;5011433;28;20029;-67
2023/11/24 07:13:59;;;;;;;20.33;12.40;;;;;;;-3.02;100.00;97607.72;5011811;28;20037;-67
2023/11/24 07:16:25;;;;;;;17.47;11.47;;;;;;;-3.10;100.00;97586.03;5013923;28;20037;-66
2023/11/24 07:18:51;;;;;;;16.00;9.88;;;;;;;-2.89;100.00;97631.56;5015299;28;20211;-67
2023/11/24 07:21:16;;;;;;;18.73;9.83;;;;;;;-2.79;100.00;97635.84;5015193;28;20120;-67
2023/11/24 07:23:42;;;;;;;16.60;9.67;;;;;;;-2.72;100.00;97642.03;5014834;28;20049;-67
2023/11/24 07:26:07;;;;;;;14.80;10.20;;;;;;;-2.88;100.00;97627.97;5013744;28;20498;-67
2023/11/24 07:28:38;;;;;;;14.98;10.32;;;;;;;-3.54;100.00;97515.81;5015057;28;20058;-67
2023/11/24 07:31:04;;;;;;;18.75;12.40;;;;;;;-2.68;100.00;97645.97;5014976;28;20126;-67
2023/11/24 07:33:32;;;;;;;20.58;12.95;;;;;;;-2.73;100.00;97643.84;5014847;28;20038;-66
2023/11/24 07:35:57;;;;;;;18.75;11.82;;;;;;;-2.70;100.00;97645.31;5014857;28;20497;-67
2023/11/24 07:38:25;;;;;;;21.87;12.83;;;;;;;-2.74;100.00;97638.78;5014638;28;20048;-69
2023/11/24 07:40:51;;;;;;;19.85;12.07;;;;;;;-2.97;100.00;97618.47;5014913;28;20038;-67
2023/11/24 07:43:17;;;;;;;25.80;12.80;;;;;;;-2.94;100.00;97618.16;5013939;28;20058;-69
2023/11/24 07:45:48;;;;;;;20.88;14.70;;;;;;;-2.85;100.00;97642.47;5015348;28;20073;-71
2023/11/24 07:48:15;;;;;;;16.80;11.70;;;;;;;-3.26;100.00;97584.13;5014428;28;20100;-68
2023/11/24 07:50:41;;;;;;;19.48;11.35;;;;;;;-3.16;100.00;97597.88;5016443;28;20034;-68
2023/11/24 07:53:06;;;;;;;15.97;11.07;;;;;;;-2.79;100.00;97644.47;5015602;28;20100;-72
2023/11/24 07:55:32;;;;;;;15.70;9.47;;;;;;;-2.87;100.00;97628.81;5014895;28;20044;-69
2023/11/24 07:57:57;;;;;;;12.93;9.30;;;;;;;-2.85;100.00;97652.91;5013667;28;20029;-71
2023/11/24 08:00:24;;;;;;;12.77;9.43;;;;;;;-2.97;100.00;97659.31;5013715;28;20058;-71
2023/11/24 08:02:49;;;;;;;13.88;9.60;;;;;;;-3.06;100.00;97635.03;5014314;28;20040;-71
2023/11/24 08:05:16;;;;;;;19.03;9.00;;;;;;;-3.03;100.00;97632.09;5014261;28;20413;-73
2023/11/24 08:07:44;;;;;;;14.60;9.05;;;;;;;-2.85;100.00;97640.69;5012802;28;20497;-70
2023/11/24 08:10:10;;;;;;;13.43;8.52;;;;;;;-2.74;100.00;97670.03;5010903;28;20068;-69
2023/11/24 08:12:35;;;;;;;14.60;8.88;;;;;;;-2.69;100.00;97673.81;5014395;28;20070;-67
2023/11/24 08:15:01;;;;;;;12.63;9.23;;;;;;;-2.65;100.00;97659.50;5014075;28;20461;-73
2023/11/24 08:17:29;;;;;;;12.27;9.15;;;;;;;-2.50;100.00;97670.16;5014507;28;20041;-71
2023/11/24 08:19:55;;;;;;;15.93;10.67;;;;;;;-2.28;100.00;97682.66;5014184;28;20512;-71
2023/11/24 08:22:20;;;;;;;16.83;10.03;;;;;;;-2.47;100.00;97662.03;5014188;28;20037;-70
2023/11/24 08:24:46;;;;;;;14.90;9.67;;;;;;;-2.73;100.00;97627.38;5014876;28;20421;-71
2023/11/24 08:27:12;;;;;;;13.43;9.67;;;;;;;-2.52;100.00;97669.50;5013365;28;20116;-71
2023/11/24 08:29:38;;;;;;;12.47;9.57;;;;;;;-2.44;100.00;97693.00;5013483;28;20053;-72
2023/11/24 08:32:04;;;;;;;14.83;10.23;;;;;;;-2.64;100.00;97670.72;5014772;28;20254;-72
2023/11/24 08:34:30;;;;;;;15.37;9.50;;;;;;;-2.54;100.00;97700.13;5015067;28;20033;-71
2023/11/24 08:37:02;;;;;;;11.47;9.03;;;;;;;-2.65;100.00;97684.72;5014458;28;20292;-68
2023/11/24 08:39:27;;;;;;;12.70;9.25;;;;;;;-2.68;100.00;97680.66;5016386;28;20108;-70
2023/11/24 08:41:53;;;;;;;14.43;9.87;;;;;;;-2.54;100.00;97692.31;5021073;28;20520;-68
2023/11/24 08:44:24;;;;;;;13.10;10.10;;;;;;;-2.55;100.00;97688.06;5025941;28;20045;-69
2023/11/24 08:46:51;;;;;;;12.63;9.60;;;;;;;-2.50;100.00;97693.63;5031134;28;20161;-69
2023/11/24 08:49:17;;;;;;;13.00;8.88;;;;;;;-2.50;100.00;97672.78;5020724;28;20283;-69
2023/11/24 08:51:43;;;;;;;15.50;10.10;;;;;;;-2.58;100.00;97670.94;5014672;28;20129;-69
2023/11/24 08:54:10;;;;;;;19.10;11.53;;;;;;;-2.38;100.00;97696.75;5015289;28;20285;-70
2023/11/24 08:56:38;;;;;;;14.80;10.23;;;;;;;-2.40;100.00;97694.31;5012977;28;20033;-69
2023/11/24 08:59:05;;;;;;;12.85;9.60;;;;;;;-2.43;100.00;97696.41;5013835;28;20741;-67
2023/11/24 09:01:31;;;;;;;14.90;10.27;;;;;;;-2.87;100.00;97642.63;5012087;28;20206;-66
2023/11/24 09:03:56;;;;;;;13.97;9.03;;;;;;;-2.63;100.00;97708.84;5013511;28;20517;-67
2023/11/24 09:06:31;;;;;;;14.33;9.20;;;;;;;-2.69;100.00;97686.84;5013557;28;20037;-68
2023/11/24 09:09:00;;;;;;;17.50;10.10;;;;;;;-2.86;100.00;97662.50;5012969;28;20042;-67
2023/11/24 09:11:26;;;;;;;14.68;9.23;;;;;;;-2.59;100.00;97713.63;5012949;28;20037;-67
2023/11/24 09:13:51;;;;;;;17.23;10.43;;;;;;;-2.55;100.00;97712.31;5012587;28;20124;-70
2023/11/24 09:16:18;;;;;;;16.07;10.37;;;;;;;-2.55;100.00;97721.94;5015095;28;20080;-66
2023/11/24 09:18:44;;;;;;;16.33;9.73;;;;;;;-2.66;100.00;97707.34;5014225;28;20567;-66
2023/11/24 09:21:10;;;;;;;17.67;9.98;;;;;;;-2.47;100.00;97713.34;5014102;28;20033;-68
2023/11/24 09:23:37;;;;;;;16.73;10.57;;;;;;;-2.44;100.00;97708.63;5013489;28;20121;-66
2023/11/24 09:26:06;;;;;;;27.30;14.18;;;;;;;-2.27;100.00;97709.53;5012644;28;20300;-66
2023/11/24 09:28:32;;;;;;;17.47;11.40;;;;;;;-2.19;100.00;97701.75;5011763;28;20084;-69
2023/11/24 09:31:08;;;;;;;15.10;10.23;;;;;;;-2.10;100.00;97732.06;5012265;28;20281;-66
2023/11/24 09:33:39;;;;;;;15.48;8.85;;;;;;;-2.14;100.00;97729.94;5011624;28;20798;-66
2023/11/24 09:36:06;;;;;;;14.48;10.05;;;;;;;-2.25;100.00;97739.69;5010918;28;20044;-66
2023/11/24 09:38:33;;;;;;;20.65;10.27;;;;;;;-2.43;100.00;97712.06;5012836;28;20478;-68
2023/11/24 09:41:11;;;;;;;21.23;11.90;;;;;;;-2.48;100.00;97702.09;5011073;28;20403;-66
2023/11/24 09:43:40;;;;;;;13.67;10.13;;;;;;;-2.39;100.00;97736.81;5012434;28;20272;-66
2023/11/24 09:46:07;;;;;;;22.17;12.13;;;;;;;-2.57;100.00;97732.50;5012265;28;20288;-64
2023/11/24 09:48:33;;;;;;;14.93;9.07;;;;;;;-3.23;100.00;97641.88;5012294;28;20345;-65
2023/11/24 09:51:07;;;;;;;13.50;9.50;;;;;;;-2.43;100.00;97757.16;5012163;28;20508;-67
2023/11/24 09:53:33;;;;;;;18.13;10.97;;;;;;;-2.44;100.00;97765.97;5011964;28;20843;-64
2023/11/24 09:56:03;;;;;;;20.30;12.13;;;;;;;-2.69;100.00;97745.94;5011269;28;20359;-65
2023/11/24 09:58:30;;;;;;;17.75;12.40;;;;;;;-2.67;100.00;97775.25;5010808;28;20038;-65
2023/11/24 10:01:05;;;;;;;17.85;11.15;;;;;;;-2.68;100.00;97768.41;5010998;28;20041;-67
2023/11/24 10:03:37;;;;;;;19.88;12.25;;;;;;;-2.58;100.00;97787.38;5012187;28;20045;-65
2023/11/24 10:06:04;;;;;;;20.33;13.00;;;;;;;-2.88;100.00;97741.75;5011899;28;20125;-66
2023/11/24 10:08:30;;;;;;;20.70;12.65;;;;;;;-2.89;100.00;97746.13;5012582;28;20037;-67
2023/11/24 10:11:09;;;;;;;23.05;14.35;;;;;;;-2.67;100.00;97798.69;5012263;28;20041;-65
2023/11/24 10:13:35;;;;;;;19.95;12.23;;;;;;;-2.68;100.00;97792.66;5011999;28;20037;-66
2023/11/24 10:16:04;;;;;;;19.97;12.53;;;;;;;-2.91;100.00;97753.25;5010552;28;20037;-67
2023/11/24 10:18:29;;;;;;;20.17;12.50;;;;;;;-2.81;100.00;97769.63;5011945;28;20382;-64
2023/11/24 10:20:55;;;;;;;20.37;13.10;;;;;;;-2.87;100.00;97770.25;5012273;28;20033;-67
2023/11/24 10:23:20;;;;;;;19.53;12.90;;;;;;;-2.79;100.00;97777.28;5011895;28;20030;-66
2023/11/24 10:25:47;;;;;;;18.97;11.77;;;;;;;-2.73;100.00;97796.69;5012315;28;20104;-67
2023/11/24 10:28:18;;;;;;;19.65;12.65;;;;;;;-3.00;100.00;97753.34;5011846;28;20053;-66
2023/11/24 10:30:44;;;;;;;17.13;9.32;;;;;;;-2.73;100.00;97807.94;5010906;28;20500;-67
2023/11/24 10:33:11;;;;;;;14.25;9.50;;;;;;;-2.76;100.00;97794.41;5011876;28;20036;-64
2023/11/24 10:35:37;;;;;;;15.90;9.73;;;;;;;-2.68;100.00;97815.28;5011977;28;20092;-66
2023/11/24 10:38:04;;;;;;;15.57;10.47;;;;;;;-2.79;100.00;97797.31;5012189;28;20049;-66
2023/11/24 10:40:31;;;;;;;11.55;8.73;;;;;;;-2.69;100.00;97818.88;5011982;28;20034;-66
2023/11/24 10:42:57;;;;;;;15.05;9.57;;;;;;;-2.75;100.00;97809.06;5012318;28;20527;-66
2023/11/24 10:45:24;;;;;;;14.47;9.37;;;;;;;-2.62;100.00;97819.88;5012545;28;20057;-63
2023/11/24 10:48:09;;;;;;;16.38;9.45;;;;;;;-2.57;100.00;97813.28;5012447;28;20034;-66
2023/11/24 10:50:41;;;;;;;14.77;10.05;;;;;;;-2.53;100.00;97829.44;5014913;28;20041;-65
2023/11/24 10:53:23;;;;;;;14.63;9.57;;;;;;;-2.52;100.00;97841.47;5016715;28;20034;-66
2023/11/24 10:55:52;;;;;;;15.82;10.75;;;;;;;-2.54;100.00;97841.63;5016801;28;20088;-66
2023/11/24 10:58:19;;;;;;;;;;;;;;;-2.56;100.00;97840.16;5017266;28;20088;-69
2023/11/24 11:00:45;;;;;;;17.90;10.38;;;;;;;-2.65;100.00;97835.81;5015896;28;20044;-66
2023/11/24 11:03:14;;;;;;;13.32;9.88;;;;;;;-2.69;100.00;97850.13;5015475;28;20460;-65
2023/11/24 11:05:56;;;;;;;15.00;9.60;;;;;;;-2.81;100.00;97826.94;5013820;28;20038;-63
2023/11/24 11:08:38;;;;;;;13.75;9.45;;;;;;;-2.76;100.00;97842.09;5015090;28;20046;-66
2023/11/24 11:11:12;;;;;;;14.32;8.02;;;;;;;-2.73;100.00;97847.00;5015292;28;20517;-67